默认 日期 大小 文件数 浏览量 最新下载 xml
06.06磁力链接相关资源由用户搜索指令自动获取,结果来源于网络,本站不存储任何资料,亦不承担任何责任,请于24小时内删除,搜索到431101个磁力,显示前4000条数据,用时98ms。
    ... , "11. The Scientist.flac": 44273904, "06. Speed Of Sound.flac": 37529866 ... Face.flac": 38292138, "Coldplay - 2005 - 06 - 06 - London [FM].st5": 1560}
创建时间: 2020-11-10 16:29:45 大小:620.31 MB 文件数量:23 热度:4 最近下载:2022-04-10 06:02:56
    {"RARBG.txt": 30, "wetandpuffy.18.06.06.lexy.star.hidden.sex.toys[tk][480p].mp4": 202856893}
创建时间: 2020-11-10 20:14:49 大小:193.46 MB 文件数量:2 热度:4 最近下载:2025-01-14 17:26:06
    {"folder.webp": 91426, "06. The Soul Crusaders - Sway.m4a": ...
创建时间: 2020-11-11 22:15:17 大小:173.07 MB 文件数量:16 热度:4 最近下载:2025-09-19 08:11:02
    {"Torrent Downloaded From ExtraTorrent.cc.txt": 446, "mom.16.06.06.candy.alexa.head.to.toe[VR56].mp4": 1232825130}
创建时间: 2020-11-13 22:38:24 大小:1.15 GB 文件数量:2 热度:16 最近下载:2025-08-01 21:21:07
    {"3E帝国.url": 183, "BT联盟3E发布索引页.url": 184, "海底总动员(bbs.3e-online.com).rmvb": 1267246948, "3E帝国招聘贴,有志者勿错过!期待你的加入!.txt": 2427}
创建时间: 2020-11-13 23:28:56 大小:1.18 GB 文件数量:4 热度:6 最近下载:2025-02-23 04:37:01
    ... , "The Rachel Maddow Show 2017 06 06 720p WEBRip x264-LM.mp4 ... , "The Rachel Maddow Show 2017 06 06 720p WEBRip x264-LM.nfo ...
创建时间: 2020-11-14 04:00:14 大小:956.74 MB 文件数量:7 热度:2 最近下载:2021-06-17 16:25:58
    ... 102902168, "TGOASTT_2014-06-06t-05.flac": 77126822, "TGOASTT_2014-06-06t-06.flac": 45789900 ... , "TGOASTT_2014-06-06t-07.flac ... ": 68479969, "TGOASTT_2014-06-06.flac24.ffp": 682, "TGOASTT_2014-06-06t-11.flac24 ...
创建时间: 2020-11-15 03:08:13 大小:730.54 MB 文件数量:13 热度:2 最近下载:2021-06-17 16:25:58
    {"18OnlyGirls.16.06.06.Cayla.And.Violette.Going.Strong.XXX.1080p.MP4-KTR.mp4": 1398645974}
创建时间: 2020-11-15 04:45:04 大小:1.3 GB 文件数量:1 热度:5 最近下载:2025-03-26 18:43:03
    ... -Create_exploded_views.srt": 4664, "06-Texture_curved_objects.mp4": 15489104, "06-Texture_curved_objects.srt": 5849, "52 ...
创建时间: 2020-11-15 06:00:40 大小:1.6 GB 文件数量:142 热度:4 最近下载:2024-12-31 03:58:03
    ... Penn).afpk": 1507488, "_HOUR_00_Loveline - 2000-06-06 (Aimee Mann & Michael Penn).afpk ... ": 739152, "_HOUR_01_Loveline - 2000-06-06 (Aimee Mann & Michael Penn).afpk ... ": 754360, "_HOUR_02_Loveline - 2000-06-06 (Aimee Mann & Michael Penn).afpk ...
创建时间: 2020-11-15 06:01:21 大小:40.23 MB 文件数量:11 热度:4 最近下载:2025-09-16 17:51:01
    {"RARBG.txt": 30, "RARBG_DO_NOT_MIRROR.exe": 99, "DickDrainers.19.06.06.Jezebeth.XXX.SD.MP4-KLEENEX.mp4": 470045621}
创建时间: 2020-11-18 06:54:11 大小:448.27 MB 文件数量:3 热度:13 最近下载:2025-08-18 05:13:01
    ... 06.05.06.Govi-Saffron.torrent": 94510, "06.05.06.Jim_Brickman.torrent": 84721, "06.05.06 ... , "06.05.06.Govi-De_Luxe_Collection.torrent": 106182, "06.05.06.Govi- ... 22601, "06.05.06.Big_And_Hot_Record_Vol_2.torrent": 100176, "06.05.06.Govi-Saffron ...
创建时间: 2020-11-18 11:29:42 大小:363.08 MB 文件数量:342 热度:4 最近下载:2022-04-13 06:59:22
    {"sexo-18e-kiera-120606": {"sexo-18e-kiera-120606.wmv": 262263699}, "sexo-18e-lexee-120530": {"sexo-18e-lexee-120530.wmv": 431614799}, "sexo-18e-mandy-120516": {"sexo-18e-mandy-120516.wmv": 472086955}, "sexo-18e-molly-120425": {"sexo-18e-molly-120425.wmv": ...
创建时间: 2020-11-18 12:18:28 大小:2.98 GB 文件数量:8 热度:6 最近下载:2023-04-21 10:10:03
    {"RARBG.txt": 30, "RARBG_DO_NOT_MIRROR.exe": 99, "dickdrainers.19.06.06.jezebeth.mp4": 5213868599, "dickdrainers.19.06.06.jezebeth.nfo": 517}
创建时间: 2020-11-19 01:24:09 大小:4.86 GB 文件数量:4 热度:60 最近下载:2025-09-23 10:25:01
    ... , "06.06.06.zjl11.torrent": 105462, "05.06.06.Ϸ��.torrent": 65456, "06.05.06.yangguang ... , "06.05.06.Govi-Saffron.torrent": 94510, "06.05.06.Jim_Brickman.torrent": 84721, "06.05.06 ... ��Ƶ�.torrent": 87771, "06.06.06.�ܽ���-11 ...
创建时间: 2020-11-19 04:44:03 大小:363.7 MB 文件数量:440 热度:2 最近下载:2021-06-17 16:25:58
    {"jowm.20.06.06.alina.west.mp4": 100884789}
创建时间: 2020-11-19 14:03:50 大小:96.21 MB 文件数量:1 热度:3 最近下载:2022-05-20 05:44:49
    ... .org.nfo": 86, "DickDrainers.19.06.06.Jezebeth.XXX.XviD-iPT Team ... .avi": 604399858, "DickDrainers.19.06.06.Jezebeth.XXX.XviD-iPT Team ...
创建时间: 2020-11-19 22:41:48 大小:578.89 MB 文件数量:12 热度:10 最近下载:2024-08-03 18:50:02
    ... , "atkh.15.06.06.melody.amateur.r00": 15000000, "atkh.15.06.06.melody.amateur ... .r01": 15000000, "atkh.15.06.06.melody.amateur ... .r02": 15000000, "atkh.15.06.06.melody.amateur ...
创建时间: 2020-11-21 02:32:22 大小:459.42 MB 文件数量:35 热度:3 最近下载:2021-06-17 16:25:58
    ... - YOU FM Clubnight Hessentag (03.06.2006) (XviD) [hR].avi": ... - YOU FM Clubnight Hessentag (03.06.2006) (XviD) [hR].avi": ... - YOU FM Clubnight Hessentag (03.06.2006) (XviD) [hR].avi": ... - YOU FM Clubnight Hessentag (03.06.2006) [hR].mp3": 201390080, "Frank ...
创建时间: 2020-11-22 12:46:55 大小:2.52 GB 文件数量:20 热度:7 最近下载:2025-09-20 06:56:03
    {"PornLeech Release Group.txt": 0, "Torrent Downloaded From PornLeech.com.txt": 0, "Blanche Bradburry June 06, 2014 1080p_full_mp4.mp4": 431650759}
创建时间: 2020-11-22 18:48:33 大小:411.65 MB 文件数量:3 热度:30 最近下载:2025-01-10 12:54:05